Time;durP1;ratioP1;P1;durP2;ratioP2;P2;SDS_P1;SDS_P2;PMS_P1;PMS_P2;Temp;Humidity;BMP_temperature;BMP_pressure;BME280_temperature;BME280_humidity;BME280_pressure;Samples;Min_cycle;Max_cycle;Signal;HPM_P1;HPM_P2
2022/11/22 00:01:29;;;;;;;9.70;5.30;;;;;;;-0.44;100.00;98194.80;106414;1306;138217;-62
2022/11/22 00:03:56;;;;;;;;;;;;;;;-0.44;100.00;98196.91;106547;1295;22343;-63
2022/11/22 00:06:23;;;;;;;8.50;6.00;;;;;;;-0.46;100.00;98206.64;106562;1306;22207;-61
2022/11/22 00:08:49;;;;;;;10.30;6.90;;;;;;;-0.48;100.00;98204.35;106424;1298;139792;-61
2022/11/22 00:11:16;;;;;;;7.70;5.60;;;;;;;-0.49;100.00;98206.05;106531;1306;23483;-61
2022/11/22 00:13:43;;;;;;;8.60;5.50;;;;;;;-0.51;100.00;98210.26;106424;1306;138244;-60
2022/11/22 00:16:10;;;;;;;8.90;6.40;;;;;;;-0.53;100.00;98210.14;106511;1299;22301;-61
2022/11/22 00:18:36;;;;;;;8.60;5.70;;;;;;;-0.55;100.00;98216.17;106523;1291;22159;-61
2022/11/22 00:21:06;;;;;;;8.30;6.20;;;;;;;-0.58;99.99;98219.71;106461;1292;138701;-61
2022/11/22 00:23:33;;;;;;;7.60;5.70;;;;;;;-0.59;100.00;98221.13;106554;1299;23446;-61
2022/11/22 00:26:00;;;;;;;;;;;;;;;-0.60;100.00;98224.05;106466;1303;139103;-62
2022/11/22 00:28:27;;;;;;;5.60;4.50;;;;;;;-0.62;99.98;98216.86;106474;1305;22155;-62
2022/11/22 00:30:53;;;;;;;5.00;4.10;;;;;;;-0.73;100.00;98201.40;106531;1306;22158;-61
2022/11/22 00:33:20;;;;;;;;;;;;;;;-0.65;100.00;98221.78;106425;1291;140836;-62
2022/11/22 00:35:47;;;;;;;4.90;3.30;;;;;;;-0.71;99.97;98218.27;106525;1295;22118;-61
2022/11/22 00:38:13;;;;;;;6.00;4.60;;;;;;;-0.67;99.93;98231.38;106403;1292;140002;-62
2022/11/22 00:40:40;;;;;;;4.50;3.60;;;;;;;-0.68;99.92;98234.88;106561;1306;22387;-62
2022/11/22 00:43:07;;;;;;;7.30;4.40;;;;;;;-0.67;99.98;98227.23;106522;1308;22833;-61
2022/11/22 00:45:34;;;;;;;4.90;4.30;;;;;;;-0.67;99.95;98221.75;106442;1306;137517;-62
2022/11/22 00:48:00;;;;;;;4.30;3.50;;;;;;;-0.68;99.71;98220.45;106563;1306;22208;-61
2022/11/22 00:50:27;;;;;;;4.70;3.80;;;;;;;-0.69;99.69;98223.08;106409;1306;137861;-62
2022/11/22 00:52:54;;;;;;;3.80;3.40;;;;;;;-0.74;99.59;98221.80;106552;1306;22288;-62
2022/11/22 00:55:20;;;;;;;4.80;3.70;;;;;;;-0.72;99.45;98224.71;106426;1306;138009;-62
2022/11/22 00:57:47;;;;;;;5.30;3.70;;;;;;;-0.76;99.39;98220.95;106541;1298;22855;-62
2022/11/22 01:00:14;;;;;;;4.80;3.60;;;;;;;-0.76;99.02;98227.75;106568;1306;23220;-62
2022/11/22 01:02:41;;;;;;;5.20;4.00;;;;;;;-0.78;99.09;98232.05;106437;1303;138973;-62
2022/11/22 01:05:09;;;;;;;5.60;3.80;;;;;;;-0.79;98.90;98236.73;106553;1306;22281;-61
2022/11/22 01:07:36;;;;;;;6.10;3.90;;;;;;;-0.79;98.96;98237.73;101973;1299;139356;-61
2022/11/22 01:10:03;;;;;;;;;;;;;;;-0.83;98.54;98228.13;102098;1288;22585;-62
2022/11/22 01:12:30;;;;;;;4.60;3.10;;;;;;;-0.85;98.58;98227.14;101986;1296;22484;-61
2022/11/22 01:14:56;;;;;;;4.40;3.30;;;;;;;-0.89;98.45;98231.10;102147;1299;137852;-61
2022/11/22 01:17:23;;;;;;;4.60;3.00;;;;;;;-0.90;98.46;98238.23;102061;1292;22702;-61
2022/11/22 01:19:50;;;;;;;5.00;3.30;;;;;;;-0.92;98.40;98242.50;101966;1305;139421;-61
2022/11/22 01:22:17;;;;;;;5.60;3.10;;;;;;;-0.91;98.59;98249.54;102328;1298;22468;-61
2022/11/22 01:24:43;;;;;;;9.60;3.50;;;;;;;-0.92;98.56;98251.10;102047;1299;23068;-61
2022/11/22 01:27:10;;;;;;;4.80;3.20;;;;;;;-0.93;98.19;98249.83;102075;1296;138792;-61
2022/11/22 01:29:37;;;;;;;5.30;3.60;;;;;;;-0.96;98.21;98241.33;102233;1288;22714;-61
2022/11/22 01:32:04;;;;;;;5.30;3.70;;;;;;;-0.96;98.23;98245.57;102187;1298;140377;-61
2022/11/22 01:34:31;;;;;;;5.90;4.00;;;;;;;-0.95;98.31;98253.88;102272;1295;24465;-62
2022/11/22 01:36:57;;;;;;;;;;;;;;;-0.95;98.15;98264.11;102349;1305;22488;-61
2022/11/22 01:39:24;;;;;;;7.90;3.70;;;;;;;-0.94;98.24;98272.38;102092;1299;124325;-61
2022/11/22 01:41:51;;;;;;;5.20;3.30;;;;;;;-0.96;97.88;98273.33;102186;1295;22487;-62
2022/11/22 01:44:28;;;;;;;5.40;3.40;;;;;;;-0.97;97.73;98267.29;101847;1291;138766;-61
2022/11/22 01:47:14;;;;;;;5.90;3.40;;;;;;;-1.00;97.82;98264.92;102256;1292;26061;-61
2022/11/22 01:49:45;;;;;;;5.50;3.50;;;;;;;-1.03;97.56;98266.60;106111;1313;138913;-62
2022/11/22 01:52:15;;;;;;;4.00;2.90;;;;;;;-1.06;97.41;98278.33;106473;1304;22123;-62
2022/11/22 01:54:42;;;;;;;3.70;3.30;;;;;;;-1.07;97.23;98280.10;106545;1306;22238;-62
2022/11/22 01:57:11;;;;;;;5.20;3.50;;;;;;;-1.08;97.31;98275.42;106282;1306;138692;-63
2022/11/22 01:59:39;;;;;;;5.30;3.70;;;;;;;-1.11;96.73;98266.59;106553;1306;22926;-62
2022/11/22 02:02:05;;;;;;;5.10;3.40;;;;;;;-1.15;96.96;98270.95;106356;1309;137899;-61
2022/11/22 02:04:32;;;;;;;5.00;3.10;;;;;;;-1.14;96.72;98278.52;106478;1306;22210;-62
2022/11/22 02:07:31;;;;;;;5.00;3.60;;;;;;;-1.13;96.68;98277.36;106473;1309;23238;-61
2022/11/22 02:09:58;;;;;;;5.20;3.80;;;;;;;-1.14;96.58;98277.66;106540;1309;22218;-61
2022/11/22 02:12:26;;;;;;;5.80;4.10;;;;;;;-1.16;96.53;98277.27;106561;1296;22875;-62
2022/11/22 02:14:53;;;;;;;6.10;3.90;;;;;;;-1.17;96.39;98278.47;106430;1306;138435;-62
2022/11/22 02:17:20;;;;;;;7.90;4.30;;;;;;;-1.22;96.08;98280.95;106462;1298;22194;-61
2022/11/22 02:19:48;;;;;;;6.50;4.60;;;;;;;-1.24;95.99;98287.87;106443;1303;138830;-62
2022/11/22 02:22:20;;;;;;;6.80;4.20;;;;;;;-1.27;96.16;98290.38;106564;1300;23072;-62
2022/11/22 02:24:56;;;;;;;6.50;4.50;;;;;;;-1.29;96.02;98302.36;106502;1299;22399;-62
2022/11/22 02:27:23;;;;;;;6.30;4.80;;;;;;;-1.30;95.80;98302.70;106431;1298;138050;-61
2022/11/22 02:29:49;;;;;;;;;;;;;;;-1.28;96.17;98304.28;106541;1306;22332;-62
2022/11/22 02:32:16;;;;;;;6.60;5.00;;;;;;;-1.29;96.18;98299.88;106456;1305;125410;-62
2022/11/22 02:34:47;;;;;;;;;;;;;;;-1.33;95.43;98296.72;106548;1305;22373;-62
2022/11/22 02:37:16;;;;;;;5.90;4.40;;;;;;;-1.38;95.43;98300.92;106505;1299;22246;-62
2022/11/22 02:39:43;;;;;;;8.00;5.40;;;;;;;-1.42;95.72;98309.92;106434;1301;137991;-62
2022/11/22 02:42:10;;;;;;;;;;;;;;;-1.44;95.73;98315.04;106524;1306;22422;-61
2022/11/22 02:44:37;;;;;;;7.40;5.60;;;;;;;-1.45;95.79;98310.90;106401;1290;124795;-62
2022/11/22 02:47:04;;;;;;;8.30;5.80;;;;;;;-1.46;95.91;98308.27;106564;1306;22943;-63
2022/11/22 02:49:31;;;;;;;8.00;5.80;;;;;;;-1.45;95.79;98310.70;106382;1307;138784;-62
2022/11/22 02:51:58;;;;;;;10.50;6.70;;;;;;;-1.46;95.84;98322.91;106539;1300;22226;-62
2022/11/22 02:54:24;;;;;;;8.70;6.50;;;;;;;-1.45;95.64;98326.52;106508;1295;22138;-62
2022/11/22 02:56:51;;;;;;;8.50;5.60;;;;;;;-1.44;95.77;98326.70;106424;1306;138534;-62
2022/11/22 02:59:18;;;;;;;12.90;6.40;;;;;;;-1.44;95.88;98327.28;106496;1306;22994;-62
2022/11/22 03:01:45;;;;;;;;;;;;;;;-1.45;95.42;98330.10;106443;1306;138014;-62
2022/11/22 03:04:23;;;;;;;9.10;6.20;;;;;;;-1.45;95.37;98327.79;106524;1307;22905;-61
2022/11/22 03:06:52;;;;;;;10.80;6.20;;;;;;;-1.44;95.47;98328.23;106520;1306;22429;-61
2022/11/22 03:09:19;;;;;;;11.40;5.80;;;;;;;-1.46;95.20;98336.71;106449;1299;139115;-61
2022/11/22 03:11:46;;;;;;;11.10;6.60;;;;;;;-1.47;95.34;98346.58;106538;1307;22217;-61
2022/11/22 03:14:14;;;;;;;;;;;;;;;-1.47;95.27;98354.55;106416;1297;138564;-61
2022/11/22 03:16:44;;;;;;;8.80;6.00;;;;;;;-1.46;95.34;98356.07;106536;1306;22154;-61
2022/11/22 03:19:11;;;;;;;10.30;6.20;;;;;;;-1.50;95.04;98346.84;106545;1298;22164;-61
2022/11/22 03:21:38;;;;;;;8.70;5.90;;;;;;;-1.46;94.97;98353.48;106411;1306;137646;-61
2022/11/22 03:24:05;;;;;;;12.00;7.00;;;;;;;-1.51;94.66;98361.16;106544;1306;23352;-61
2022/11/22 03:26:33;;;;;;;9.60;6.20;;;;;;;-1.54;94.45;98369.48;106438;1306;139765;-61
2022/11/22 03:28:59;;;;;;;11.40;7.40;;;;;;;-1.58;94.57;98370.13;106557;1306;22085;-61
2022/11/22 03:31:26;;;;;;;;;;;;;;;-1.59;94.61;98369.49;106572;1305;139120;-61
2022/11/22 03:33:53;;;;;;;8.90;6.10;;;;;;;-1.58;94.78;98364.78;106566;1306;22751;-62
2022/11/22 03:36:20;;;;;;;7.70;5.70;;;;;;;-1.56;94.65;98363.80;106699;1289;22127;-61
2022/11/22 03:38:47;;;;;;;;;;;;;;;-1.52;94.80;98367.05;106551;1306;138027;-61
2022/11/22 03:41:14;;;;;;;12.80;5.50;;;;;;;-1.51;94.79;98369.39;106540;1298;22851;-62
2022/11/22 03:43:40;;;;;;;8.30;6.20;;;;;;;-1.51;94.59;98368.52;106470;1306;138682;-62
2022/11/22 03:46:12;;;;;;;;;;;;;;;-1.52;94.55;98371.65;106730;1306;23271;-62
2022/11/22 03:48:39;;;;;;;6.70;4.90;;;;;;;-1.53;93.96;98376.29;106573;1287;22255;-62
2022/11/22 03:51:06;;;;;;;8.70;5.40;;;;;;;-1.56;93.97;98372.80;106611;1306;137971;-62
2022/11/22 03:53:32;;;;;;;8.30;5.40;;;;;;;-1.56;93.93;98382.61;106582;1296;127610;-62
2022/11/22 03:57:24;;;;;;;8.60;5.30;;;;;;;-1.53;94.01;98392.59;99599;1335;545415;-60
2022/11/22 03:59:50;;;;;;;6.00;4.80;;;;;;;-1.56;93.81;98401.52;101276;1320;22701;-61
2022/11/22 04:02:17;;;;;;;;;;;;;;;-1.58;93.69;98408.35;101131;1299;137313;-61
2022/11/22 04:04:44;;;;;;;7.30;5.90;;;;;;;-1.62;93.60;98407.45;101200;1305;24466;-61
2022/11/22 04:07:11;;;;;;;9.60;5.80;;;;;;;-1.66;93.45;98401.75;101955;1299;22560;-61
2022/11/22 04:09:37;;;;;;;;;;;;;;;-1.71;93.35;98398.70;101951;1299;138104;-61
2022/11/22 04:12:04;;;;;;;7.80;5.30;;;;;;;-1.75;93.39;98399.84;102163;1305;145386;-61
2022/11/22 04:17:39;;;;;;;7.70;5.10;;;;;;;-1.75;93.75;98407.31;102188;1313;23876;-61
2022/11/22 04:23:07;;;;;;;7.90;5.80;;;;;;;-1.81;93.52;98386.11;101625;1304;22477;-61
2022/11/22 04:25:35;;;;;;;9.40;5.80;;;;;;;-1.75;93.62;98390.88;101627;1319;138390;-61
2022/11/22 04:28:03;;;;;;;7.90;5.20;;;;;;;-1.73;93.96;98385.61;101491;1304;25546;-61
2022/11/22 04:33:15;;;;;;;8.70;5.70;;;;;;;-1.68;93.88;98401.13;105969;1305;137803;-62
2022/11/22 04:35:42;;;;;;;10.00;6.20;;;;;;;-1.64;93.74;98411.48;106204;1310;23002;-62
2022/11/22 04:38:09;;;;;;;9.50;6.00;;;;;;;-1.62;93.59;98423.61;106003;1303;137916;-62
2022/11/22 04:40:37;;;;;;;9.10;6.20;;;;;;;-1.59;93.45;98428.89;106094;1311;22216;-63
2022/11/22 04:45:50;;;;;;;9.00;5.40;;;;;;;-1.51;93.40;98424.52;106068;1312;22164;-63
2022/11/22 04:48:16;;;;;;;;;;;;;;;-1.47;93.38;98422.92;106178;1312;23520;-63
2022/11/22 04:53:29;;;;;;;9.30;5.90;;;;;;;-1.47;93.01;98431.34;106171;1304;22348;-62
2022/11/22 04:55:56;;;;;;;9.10;6.30;;;;;;;-1.42;92.89;98438.48;106006;1310;139393;-62
2022/11/22 04:58:23;;;;;;;9.90;6.80;;;;;;;-1.42;92.98;98436.67;106177;1304;22237;-62
2022/11/22 05:00:49;;;;;;;;;;;;;;;-1.39;92.90;98437.13;106400;1306;22501;-62
2022/11/22 05:03:16;;;;;;;9.10;5.50;;;;;;;-1.39;93.13;98438.48;106467;1304;123611;-62
2022/11/22 05:05:43;;;;;;;;;;;;;;;-1.40;92.75;98443.25;105563;1303;26766;-62
2022/11/22 05:08:10;;;;;;;8.20;5.90;;;;;;;-1.43;92.71;98455.12;101995;1297;124653;-62
2022/11/22 05:10:55;;;;;;;9.20;6.30;;;;;;;-1.44;92.50;98456.16;106310;1313;22169;-62
2022/11/22 05:13:26;;;;;;;10.50;6.70;;;;;;;-1.45;92.54;98457.19;106566;1304;22315;-63
2022/11/22 05:15:53;;;;;;;10.70;7.00;;;;;;;-1.44;92.73;98464.00;106539;1305;22844;-63
2022/11/22 05:18:20;;;;;;;;;;;;;;;-1.42;92.62;98471.27;106578;1306;22442;-62
2022/11/22 05:20:47;;;;;;;12.00;6.30;;;;;;;-1.42;92.61;98468.52;106470;1303;125074;-62
2022/11/22 05:25:59;;;;;;;8.00;5.70;;;;;;;-1.47;92.14;98466.61;106445;1295;138888;-62
2022/11/22 05:28:26;;;;;;;;;;;;;;;-1.51;92.00;98465.74;106528;1290;22364;-62
2022/11/22 05:30:54;;;;;;;10.60;5.90;;;;;;;-1.54;91.67;98464.70;106535;1303;24116;-61
2022/11/22 05:33:21;;;;;;;8.70;6.40;;;;;;;-1.62;91.78;98460.91;106384;1306;139425;-61
2022/11/22 05:35:48;;;;;;;11.20;6.30;;;;;;;-1.62;91.71;98465.52;106519;1290;22133;-61
2022/11/22 05:38:14;;;;;;;11.00;6.80;;;;;;;-1.65;91.87;98463.78;106424;1306;138195;-61
2022/11/22 05:40:41;;;;;;;;;;;;;;;-1.67;91.64;98461.31;106539;1306;23260;-61
2022/11/22 05:43:08;;;;;;;10.60;6.40;;;;;;;-1.70;91.58;98461.23;106528;1306;22247;-62
2022/11/22 05:45:35;;;;;;;9.70;6.20;;;;;;;-1.72;91.71;98465.56;106443;1298;139413;-62
2022/11/22 05:48:01;;;;;;;8.90;6.70;;;;;;;-1.73;91.59;98470.01;106572;1291;23413;-62
2022/11/22 05:50:28;;;;;;;;;;;;;;;-1.70;91.86;98476.30;106471;1306;138196;-62
2022/11/22 05:52:59;;;;;;;9.90;6.50;;;;;;;-1.68;91.81;98475.77;106538;1298;22101;-62
2022/11/22 05:55:26;;;;;;;10.00;6.70;;;;;;;-1.72;91.99;98471.66;106483;1296;137514;-60
2022/11/22 05:57:53;;;;;;;11.80;7.90;;;;;;;-1.66;92.10;98481.33;106508;1291;22101;-63
2022/11/22 06:00:20;;;;;;;11.00;8.40;;;;;;;-1.68;92.01;98481.00;106509;1290;22150;-62
2022/11/22 06:02:46;;;;;;;;;;;;;;;-1.64;92.01;98489.74;106422;1297;138131;-62
2022/11/22 06:05:13;;;;;;;11.80;7.20;;;;;;;-1.62;92.02;98490.58;106570;1283;23558;-62
2022/11/22 06:07:40;;;;;;;;;;;;;;;-1.62;91.78;98496.66;106471;1306;138619;-62
2022/11/22 06:10:07;;;;;;;9.80;6.20;;;;;;;-1.60;91.84;98506.56;106541;1306;22304;-63
2022/11/22 06:12:34;;;;;;;11.40;7.40;;;;;;;-1.59;91.87;98506.23;106554;1306;23115;-62
2022/11/22 06:15:01;;;;;;;11.30;7.70;;;;;;;-1.56;91.90;98506.70;106412;1309;137664;-62
2022/11/22 06:17:27;;;;;;;11.60;8.00;;;;;;;-1.53;91.87;98516.04;106605;1297;22332;-62
2022/11/22 06:19:54;;;;;;;19.10;12.40;;;;;;;-1.51;92.01;98520.61;106490;1303;137936;-62
2022/11/22 06:22:26;;;;;;;15.90;10.50;;;;;;;-1.51;92.17;98522.58;106592;1306;22135;-62
2022/11/22 06:24:53;;;;;;;20.70;11.50;;;;;;;-1.48;91.78;98530.27;106551;1291;22194;-62
2022/11/22 06:27:20;;;;;;;18.10;11.90;;;;;;;-1.48;91.64;98529.24;106490;1301;138439;-63
2022/11/22 06:29:47;;;;;;;20.60;13.60;;;;;;;-1.48;91.89;98532.61;106574;1298;22159;-62
2022/11/22 06:32:13;;;;;;;21.30;12.30;;;;;;;-1.46;91.55;98530.23;106483;1304;138070;-61
2022/11/22 06:34:40;;;;;;;15.20;10.00;;;;;;;-1.42;91.53;98531.77;106642;1306;22194;-62
2022/11/22 06:37:07;;;;;;;15.60;10.10;;;;;;;-1.37;91.50;98539.55;106623;1298;22124;-61
2022/11/22 06:39:34;;;;;;;16.80;10.50;;;;;;;-1.33;91.53;98536.02;105685;1292;139053;-60
2022/11/22 06:42:01;;;;;;;18.60;11.00;;;;;;;-1.30;91.54;98537.33;106522;1298;23553;-62
2022/11/22 06:44:28;;;;;;;11.60;9.20;;;;;;;-1.28;91.43;98534.35;106499;1306;139572;-61
2022/11/22 06:46:54;;;;;;;13.40;8.80;;;;;;;-1.29;91.24;98536.42;106619;1303;23123;-61
2022/11/22 06:49:21;;;;;;;12.30;8.60;;;;;;;-1.30;91.06;98533.30;106678;1305;22130;-61
2022/11/22 06:51:48;;;;;;;16.10;9.10;;;;;;;-1.36;91.02;98531.05;106496;1298;138197;-61
2022/11/22 06:54:15;;;;;;;18.10;9.10;;;;;;;-1.30;91.24;98544.77;106565;1298;22149;-61
2022/11/22 06:56:41;;;;;;;13.10;8.40;;;;;;;-1.29;90.77;98551.20;106398;1306;138429;-61
2022/11/22 06:59:08;;;;;;;16.10;9.70;;;;;;;-1.28;90.94;98559.69;106556;1298;22148;-62
2022/11/22 07:01:36;;;;;;;;;;;;;;;-1.28;90.95;98556.48;106461;1306;138976;-61
2022/11/22 07:04:03;;;;;;;13.30;8.50;;;;;;;-1.33;90.94;98548.95;106575;1306;22112;-61
2022/11/22 07:06:34;;;;;;;13.40;9.40;;;;;;;-1.30;90.56;98558.71;106567;1297;22231;-61
2022/11/22 07:09:02;;;;;;;12.90;8.60;;;;;;;-1.32;90.51;98564.39;106455;1291;139278;-61
2022/11/22 07:11:29;;;;;;;13.10;8.80;;;;;;;-1.35;90.39;98567.38;106537;1298;22178;-62
2022/11/22 07:13:57;;;;;;;13.30;9.10;;;;;;;-1.37;90.54;98566.02;106457;1292;139064;-62
2022/11/22 07:16:33;;;;;;;14.50;9.40;;;;;;;-1.38;90.35;98569.55;104063;1298;23905;-62
2022/11/22 07:18:59;;;;;;;;;;;;;;;-1.38;90.60;98570.86;101963;1292;22484;-62
2022/11/22 07:21:26;;;;;;;12.50;8.70;;;;;;;-1.38;90.46;98572.67;102165;1288;123516;-61
2022/11/22 07:23:54;;;;;;;13.70;9.10;;;;;;;-1.39;90.22;98573.49;102185;1299;22484;-61
2022/11/22 07:26:21;;;;;;;12.00;8.60;;;;;;;-1.43;90.31;98573.20;106231;1313;138264;-62
2022/11/22 07:28:48;;;;;;;18.20;9.30;;;;;;;-1.43;90.38;98578.09;106549;1306;22888;-62
2022/11/22 07:31:16;;;;;;;21.20;12.30;;;;;;;-1.44;90.55;98585.11;106593;1306;22630;-62
2022/11/22 07:33:43;;;;;;;17.90;12.00;;;;;;;-1.44;90.55;98590.17;106467;1306;138287;-62
2022/11/22 07:36:14;;;;;;;15.50;9.90;;;;;;;-1.42;90.62;98595.06;106563;1304;22176;-61
2022/11/22 07:38:41;;;;;;;23.60;15.30;;;;;;;-1.39;90.76;98601.81;106454;1306;139687;-61
2022/11/22 07:41:08;;;;;;;;;;;;;;;-1.39;90.69;98604.98;106549;1306;22450;-61
2022/11/22 07:43:35;;;;;;;19.60;11.90;;;;;;;-1.36;90.77;98609.67;106443;1305;125328;-61
2022/11/22 07:46:05;;;;;;;;;;;;;;;-1.33;90.87;98604.27;105029;1291;22450;-61
2022/11/22 07:48:32;;;;;;;15.30;10.20;;;;;;;-1.31;90.88;98603.89;102153;1290;24222;-62
2022/11/22 07:51:05;;;;;;;;;;;;;;;-1.28;90.74;98599.06;102192;1297;140178;-61
2022/11/22 07:53:32;;;;;;;15.40;9.40;;;;;;;-1.26;90.90;98593.59;102380;1289;22617;-61
2022/11/22 07:56:03;;;;;;;14.20;9.40;;;;;;;-1.26;90.87;98594.63;102228;1289;138955;-62
2022/11/22 07:58:30;;;;;;;14.10;9.30;;;;;;;-1.27;90.65;98598.03;102322;1289;22481;-61
2022/11/22 08:00:57;;;;;;;15.10;9.30;;;;;;;-1.26;90.74;98603.59;102236;1298;23206;-63
2022/11/22 08:03:23;;;;;;;;;;;;;;;-1.25;90.52;98608.61;102196;1288;138717;-62
2022/11/22 08:05:59;;;;;;;14.30;9.10;;;;;;;-1.24;90.51;98608.32;106309;1313;23208;-62
2022/11/22 08:08:26;;;;;;;13.30;8.60;;;;;;;-1.24;90.43;98606.39;106477;1297;139308;-62
2022/11/22 08:10:53;;;;;;;16.50;10.10;;;;;;;-1.28;90.74;98602.93;106555;1289;22140;-62
2022/11/22 08:13:20;;;;;;;;;;;;;;;-1.25;90.47;98605.77;106619;1289;22335;-63
2022/11/22 08:15:48;;;;;;;13.10;8.90;;;;;;;-1.25;90.47;98607.63;106515;1281;124424;-62
2022/11/22 08:18:15;;;;;;;12.70;7.60;;;;;;;-1.24;90.51;98611.03;106555;1309;22914;-62
2022/11/22 08:20:42;;;;;;;;;;;;;;;-1.21;90.37;98616.52;106557;1306;140155;-61
2022/11/22 08:23:08;;;;;;;12.80;8.20;;;;;;;-1.20;90.61;98613.59;106625;1298;22165;-61
2022/11/22 08:25:35;;;;;;;;;;;;;;;-1.19;90.31;98613.44;106445;1297;139209;-61
2022/11/22 08:28:02;;;;;;;14.20;7.90;;;;;;;-1.19;90.33;98614.26;106701;1303;23256;-62
2022/11/22 08:30:28;;;;;;;14.30;8.80;;;;;;;-1.21;90.40;98605.41;106570;1303;22176;-62
2022/11/22 08:32:55;;;;;;;13.60;9.00;;;;;;;-1.21;90.13;98607.71;106530;1306;139801;-62
2022/11/22 08:35:22;;;;;;;;;;;;;;;-1.20;90.07;98610.43;106654;1281;22531;-63
2022/11/22 08:37:49;;;;;;;15.10;9.60;;;;;;;-1.21;90.43;98608.95;106369;1306;126060;-62
2022/11/22 08:40:15;;;;;;;13.80;8.70;;;;;;;-1.16;90.41;98613.02;106531;1306;22251;-62
2022/11/22 08:42:42;;;;;;;13.50;8.50;;;;;;;-1.14;90.25;98611.81;106469;1299;22178;-62
2022/11/22 08:45:09;;;;;;;;;;;;;;;-1.14;90.16;98613.83;106483;1298;138128;-55
2022/11/22 08:47:36;;;;;;;13.70;9.00;;;;;;;-1.13;89.88;98618.02;106564;1306;22139;-58
2022/11/22 08:50:03;;;;;;;13.10;8.40;;;;;;;-1.10;90.26;98620.33;106442;1306;138394;-57
2022/11/22 08:52:30;;;;;;;13.90;8.30;;;;;;;-1.06;90.03;98628.56;106570;1292;22124;-56
2022/11/22 08:54:56;;;;;;;14.40;9.20;;;;;;;-1.04;90.16;98618.50;106589;1306;22338;-56
2022/11/22 08:57:23;;;;;;;12.20;8.60;;;;;;;-1.02;90.13;98618.13;106446;1294;138952;-56
2022/11/22 08:59:50;;;;;;;15.20;8.60;;;;;;;-1.01;89.99;98619.42;106607;1310;22141;-56
2022/11/22 09:02:16;;;;;;;13.20;7.60;;;;;;;-0.98;90.09;98619.80;106489;1306;139004;-57
2022/11/22 09:04:43;;;;;;;12.30;7.40;;;;;;;-0.97;89.96;98623.58;106604;1304;23357;-57
2022/11/22 09:07:10;;;;;;;10.70;7.90;;;;;;;-0.97;89.77;98622.43;106571;1306;22224;-57
2022/11/22 09:09:57;;;;;;;14.30;8.80;;;;;;;-0.98;89.42;98622.66;106563;1298;22761;-58
2022/11/22 09:12:24;;;;;;;;;;;;;;;-0.97;89.50;98622.67;106594;1306;22423;-57
2022/11/22 09:14:50;;;;;;;12.10;7.80;;;;;;;-0.94;89.63;98621.90;106455;1299;124090;-56
2022/11/22 09:17:17;;;;;;;;;;;;;;;-0.91;90.00;98621.04;102729;1304;25017;-61
2022/11/22 09:19:44;;;;;;;14.10;8.10;;;;;;;-0.91;89.61;98627.33;102226;1294;126428;-61
2022/11/22 09:22:11;;;;;;;12.90;8.00;;;;;;;-0.91;89.56;98630.55;102369;1295;22517;-61
2022/11/22 09:24:37;;;;;;;;;;;;;;;-0.88;90.02;98634.29;102385;1299;22451;-61
2022/11/22 09:27:05;;;;;;;11.50;7.20;;;;;;;-0.85;89.93;98630.14;102227;1299;124592;-62
2022/11/22 09:29:31;;;;;;;13.00;8.10;;;;;;;-0.84;89.79;98633.36;102229;1298;22513;-62
2022/11/22 09:31:59;;;;;;;32.40;17.60;;;;;;;-0.85;89.68;98638.09;102289;1289;138762;-61
2022/11/22 09:34:25;;;;;;;17.00;11.00;;;;;;;-0.89;89.71;98635.46;102384;1305;22725;-61
2022/11/22 09:36:52;;;;;;;13.70;9.00;;;;;;;-0.83;89.69;98644.14;102305;1294;26144;-60
2022/11/22 09:39:19;;;;;;;14.60;8.20;;;;;;;-0.83;89.53;98648.58;102224;1288;138441;-59
2022/11/22 09:41:50;;;;;;;10.50;7.60;;;;;;;-0.84;89.63;98649.58;102334;1299;22646;-60
2022/11/22 09:44:35;;;;;;;14.10;8.10;;;;;;;-0.85;89.42;98651.38;106269;1313;138356;-60
2022/11/22 09:47:24;;;;;;;14.50;8.60;;;;;;;-0.85;89.55;98647.38;103258;1294;24251;-60
2022/11/22 09:50:28;;;;;;;14.30;9.50;;;;;;;-0.84;89.50;98644.05;102183;1295;139551;-60
2022/11/22 09:53:02;;;;;;;15.70;10.30;;;;;;;-0.86;89.37;98647.15;102268;1299;25395;-59
2022/11/22 09:55:33;;;;;;;17.00;8.90;;;;;;;-0.83;89.95;98653.89;102306;1289;24522;-59
2022/11/22 09:58:32;;;;;;;16.00;10.10;;;;;;;-0.79;89.61;98656.08;106570;1306;22238;-60
2022/11/22 10:01:18;;;;;;;;;;;;;;;-0.78;89.85;98650.44;106574;1306;23164;-58
2022/11/22 10:03:53;;;;;;;21.90;11.60;;;;;;;-0.78;89.74;98655.59;106474;1306;124166;-62
2022/11/22 10:06:23;;;;;;;16.50;10.50;;;;;;;-0.76;89.68;98658.46;106508;1296;22341;-60
2022/11/22 10:08:59;;;;;;;16.10;8.90;;;;;;;-0.74;89.51;98665.52;106353;1290;138924;-61
2022/11/22 10:11:46;;;;;;;13.70;8.30;;;;;;;-0.73;89.69;98675.75;106631;1306;22331;-60
2022/11/22 10:14:24;;;;;;;13.10;8.10;;;;;;;-0.70;89.60;98675.93;106417;1309;138220;-60
2022/11/22 10:17:14;;;;;;;;;;;;;;;-0.68;89.83;98678.08;103555;1285;25231;-59
2022/11/22 10:19:44;;;;;;;11.90;8.10;;;;;;;-0.64;89.91;98670.59;101364;1305;125385;-59
2022/11/22 10:22:12;;;;;;;13.90;9.40;;;;;;;-0.62;89.61;98676.61;101458;1320;22517;-59
2022/11/22 10:24:39;;;;;;;15.60;10.30;;;;;;;-0.61;89.86;98679.73;101305;1310;22611;-59
2022/11/22 10:27:11;;;;;;;15.50;8.80;;;;;;;-0.60;89.69;98679.69;101198;1299;139043;-58
2022/11/22 10:29:51;;;;;;;11.80;7.60;;;;;;;-0.60;89.52;98676.85;105830;1313;23029;-60
2022/11/22 10:32:37;;;;;;;12.00;7.80;;;;;;;-0.61;89.79;98671.46;105148;1292;138775;-60
2022/11/22 10:35:13;;;;;;;13.70;8.50;;;;;;;-0.60;89.41;98673.27;105948;1313;23357;-60
2022/11/22 10:37:52;;;;;;;14.00;9.20;;;;;;;-0.56;89.43;98674.36;105785;1295;139487;-59
2022/11/22 10:40:26;;;;;;;13.70;9.00;;;;;;;-0.53;89.63;98678.56;105481;1313;22254;-60
2022/11/22 10:43:18;;;;;;;16.50;10.10;;;;;;;-0.50;89.63;98679.05;105834;1304;22366;-59
2022/11/22 10:46:05;;;;;;;16.30;10.80;;;;;;;-0.49;89.43;98684.08;104667;1304;139341;-59
2022/11/22 10:49:04;;;;;;;16.70;10.00;;;;;;;-0.48;89.30;98685.89;100696;1311;25314;-59
2022/11/22 10:51:52;;;;;;;48.70;26.80;;;;;;;-0.48;89.16;98680.70;100559;1307;138871;-58
2022/11/22 10:54:24;;;;;;;19.70;11.80;;;;;;;-0.46;89.20;98674.91;100763;1319;25289;-59
2022/11/22 10:56:53;;;;;;;16.10;9.70;;;;;;;-0.46;89.06;98673.59;100874;1307;138319;-59
2022/11/22 10:59:50;;;;;;;17.20;10.70;;;;;;;-0.49;88.88;98672.02;101174;1305;22482;-59
2022/11/22 11:02:31;;;;;;;12.20;8.40;;;;;;;-0.55;88.62;98674.11;100969;1300;138807;-60
2022/11/22 11:04:58;;;;;;;14.70;9.30;;;;;;;-0.59;88.59;98670.64;101180;1296;22490;-60
2022/11/22 11:07:25;;;;;;;16.20;8.50;;;;;;;-0.60;88.88;98671.88;101154;1307;24489;-59
2022/11/22 11:10:01;;;;;;;;;;;;;;;-0.60;88.98;98672.98;101111;1303;138796;-60
2022/11/22 11:12:40;;;;;;;15.20;8.40;;;;;;;-0.59;89.10;98676.40;101160;1308;22476;-59
2022/11/22 11:15:21;;;;;;;13.90;9.10;;;;;;;-0.59;89.02;98673.64;105351;1320;139497;-60
2022/11/22 11:17:52;;;;;;;12.90;8.40;;;;;;;-0.59;88.90;98680.27;105555;1304;22281;-60
2022/11/22 11:20:26;;;;;;;14.50;9.40;;;;;;;-0.60;88.78;98680.42;105681;1308;138593;-60
2022/11/22 11:22:52;;;;;;;11.90;8.30;;;;;;;-0.61;88.69;98683.23;105775;1314;22260;-61
2022/11/22 11:25:41;;;;;;;13.10;8.20;;;;;;;-0.61;88.73;98685.00;105972;1309;138347;-60
2022/11/22 11:28:18;;;;;;;14.60;9.00;;;;;;;-0.62;88.42;98686.48;106494;1303;22121;-60
2022/11/22 11:30:47;;;;;;;17.60;10.50;;;;;;;-0.65;88.69;98691.25;106627;1303;22049;-60
2022/11/22 11:33:27;;;;;;;14.00;9.10;;;;;;;-0.63;88.76;98693.89;106483;1306;138812;-60
2022/11/22 11:36:15;;;;;;;14.00;8.80;;;;;;;-0.64;88.79;98683.69;106600;1306;22509;-60
2022/11/22 11:38:42;;;;;;;16.10;9.50;;;;;;;-0.59;88.75;98692.00;106510;1303;138464;-60
2022/11/22 11:41:24;;;;;;;13.90;9.00;;;;;;;-0.56;89.00;98695.52;106623;1306;22225;-61
2022/11/22 11:43:53;;;;;;;16.50;9.50;;;;;;;-0.52;89.21;98698.40;106483;1303;139954;-60
2022/11/22 11:46:24;;;;;;;14.90;9.30;;;;;;;-0.50;88.77;98694.70;106529;1303;22131;-60
2022/11/22 11:48:52;;;;;;;16.70;10.30;;;;;;;-0.51;88.82;98689.02;106571;1299;22130;-60
2022/11/22 11:51:19;;;;;;;19.20;10.30;;;;;;;-0.51;88.88;98694.13;106539;1298;138015;-60
2022/11/22 11:53:58;;;;;;;16.70;10.70;;;;;;;-0.49;89.00;98690.70;106550;1306;22117;-59
2022/11/22 11:56:54;;;;;;;34.90;18.50;;;;;;;-0.49;89.08;98690.30;106444;1292;139198;-60